sensor_id;sensor_type;location;lat;lon;timestamp;P1;durP1;ratioP1;P2;durP2;ratioP2
20421;SDS011;10370;53.102;18.034;2023-02-19T00:02:20;15.87;;;6.20;;
20421;SDS011;10370;53.102;18.034;2023-02-19T00:07:45;21.53;;;6.00;;
20421;SDS011;10370;53.102;18.034;2023-02-19T00:13:11;18.77;;;5.83;;
20421;SDS011;10370;53.102;18.034;2023-02-19T00:18:36;14.90;;;5.97;;
20421;SDS011;10370;53.102;18.034;2023-02-19T00:24:01;15.47;;;6.03;;
20421;SDS011;10370;53.102;18.034;2023-02-19T00:29:28;23.80;;;6.43;;
20421;SDS011;10370;53.102;18.034;2023-02-19T00:34:54;11.73;;;4.87;;
20421;SDS011;10370;53.102;18.034;2023-02-19T00:40:19;11.00;;;4.93;;
20421;SDS011;10370;53.102;18.034;2023-02-19T00:45:47;14.87;;;5.40;;
20421;SDS011;10370;53.102;18.034;2023-02-19T00:51:12;19.03;;;5.37;;
20421;SDS011;10370;53.102;18.034;2023-02-19T00:56:34;11.90;;;4.30;;
20421;SDS011;10370;53.102;18.034;2023-02-19T01:01:59;14.07;;;5.40;;
20421;SDS011;10370;53.102;18.034;2023-02-19T01:07:22;12.97;;;5.27;;
20421;SDS011;10370;53.102;18.034;2023-02-19T01:12:47;13.10;;;4.80;;
20421;SDS011;10370;53.102;18.034;2023-02-19T01:18:15;16.40;;;5.73;;
20421;SDS011;10370;53.102;18.034;2023-02-19T01:23:40;12.57;;;5.00;;
20421;SDS011;10370;53.102;18.034;2023-02-19T01:29:05;14.13;;;5.83;;
20421;SDS011;10370;53.102;18.034;2023-02-19T01:34:31;15.10;;;5.77;;
20421;SDS011;10370;53.102;18.034;2023-02-19T01:39:56;16.13;;;5.40;;
20421;SDS011;10370;53.102;18.034;2023-02-19T01:45:38;24.70;;;6.97;;
20421;SDS011;10370;53.102;18.034;2023-02-19T01:51:06;19.73;;;5.93;;
20421;SDS011;10370;53.102;18.034;2023-02-19T01:56:31;15.17;;;5.57;;
20421;SDS011;10370;53.102;18.034;2023-02-19T02:01:57;15.07;;;5.13;;
20421;SDS011;10370;53.102;18.034;2023-02-19T02:07:22;16.27;;;5.30;;
20421;SDS011;10370;53.102;18.034;2023-02-19T02:13:06;14.00;;;4.90;;
20421;SDS011;10370;53.102;18.034;2023-02-19T02:18:55;16.00;;;5.20;;
20421;SDS011;10370;53.102;18.034;2023-02-19T02:30:24;17.50;;;5.33;;
20421;SDS011;10370;53.102;18.034;2023-02-19T02:36:04;14.37;;;4.73;;
20421;SDS011;10370;53.102;18.034;2023-02-19T02:41:43;13.53;;;4.37;;
20421;SDS011;10370;53.102;18.034;2023-02-19T02:47:45;13.37;;;4.43;;
20421;SDS011;10370;53.102;18.034;2023-02-19T02:53:16;11.23;;;4.10;;
20421;SDS011;10370;53.102;18.034;2023-02-19T02:59:20;11.00;;;4.37;;
20421;SDS011;10370;53.102;18.034;2023-02-19T03:04:58;10.13;;;4.40;;
20421;SDS011;10370;53.102;18.034;2023-02-19T03:10:58;13.47;;;4.47;;
20421;SDS011;10370;53.102;18.034;2023-02-19T03:16:45;22.70;;;5.40;;
20421;SDS011;10370;53.102;18.034;2023-02-19T03:22:32;19.07;;;5.73;;
20421;SDS011;10370;53.102;18.034;2023-02-19T03:28:00;20.37;;;5.47;;
20421;SDS011;10370;53.102;18.034;2023-02-19T03:33:26;20.20;;;5.67;;
20421;SDS011;10370;53.102;18.034;2023-02-19T03:38:53;15.60;;;6.00;;
20421;SDS011;10370;53.102;18.034;2023-02-19T04:06:58;15.20;;;5.13;;
20421;SDS011;10370;53.102;18.034;2023-02-19T04:12:24;17.17;;;5.90;;
20421;SDS011;10370;53.102;18.034;2023-02-19T04:17:52;16.77;;;5.17;;
20421;SDS011;10370;53.102;18.034;2023-02-19T04:23:19;11.23;;;5.13;;
20421;SDS011;10370;53.102;18.034;2023-02-19T04:28:46;14.43;;;5.20;;
20421;SDS011;10370;53.102;18.034;2023-02-19T04:34:11;14.67;;;5.20;;
20421;SDS011;10370;53.102;18.034;2023-02-19T04:39:32;21.23;;;6.33;;
20421;SDS011;10370;53.102;18.034;2023-02-19T04:44:57;18.13;;;6.30;;
20421;SDS011;10370;53.102;18.034;2023-02-19T04:50:24;18.80;;;6.17;;
20421;SDS011;10370;53.102;18.034;2023-02-19T04:55:49;17.33;;;5.73;;
20421;SDS011;10370;53.102;18.034;2023-02-19T05:01:14;18.13;;;5.57;;
20421;SDS011;10370;53.102;18.034;2023-02-19T05:06:40;15.87;;;6.27;;
20421;SDS011;10370;53.102;18.034;2023-02-19T05:12:03;20.97;;;6.13;;
20421;SDS011;10370;53.102;18.034;2023-02-19T05:17:31;19.77;;;5.93;;
20421;SDS011;10370;53.102;18.034;2023-02-19T05:22:55;15.30;;;5.37;;
20421;SDS011;10370;53.102;18.034;2023-02-19T05:28:21;15.37;;;5.30;;
20421;SDS011;10370;53.102;18.034;2023-02-19T05:33:50;16.23;;;5.73;;
20421;SDS011;10370;53.102;18.034;2023-02-19T05:39:18;17.73;;;6.07;;
20421;SDS011;10370;53.102;18.034;2023-02-19T05:44:40;15.20;;;5.53;;
20421;SDS011;10370;53.102;18.034;2023-02-19T05:50:02;19.00;;;6.60;;
20421;SDS011;10370;53.102;18.034;2023-02-19T05:55:25;17.60;;;7.50;;
20421;SDS011;10370;53.102;18.034;2023-02-19T06:00:47;20.60;;;7.90;;
20421;SDS011;10370;53.102;18.034;2023-02-19T06:06:14;22.37;;;7.60;;
20421;SDS011;10370;53.102;18.034;2023-02-19T06:11:38;19.93;;;7.73;;
20421;SDS011;10370;53.102;18.034;2023-02-19T06:17:00;22.93;;;7.47;;
20421;SDS011;10370;53.102;18.034;2023-02-19T06:22:24;21.00;;;8.63;;
20421;SDS011;10370;53.102;18.034;2023-02-19T06:27:51;25.60;;;9.00;;
20421;SDS011;10370;53.102;18.034;2023-02-19T06:33:16;21.43;;;7.17;;
20421;SDS011;10370;53.102;18.034;2023-02-19T06:38:41;23.33;;;7.53;;
20421;SDS011;10370;53.102;18.034;2023-02-19T06:44:05;25.47;;;7.83;;
20421;SDS011;10370;53.102;18.034;2023-02-19T06:49:27;21.30;;;7.47;;
20421;SDS011;10370;53.102;18.034;2023-02-19T06:54:52;23.47;;;8.20;;
20421;SDS011;10370;53.102;18.034;2023-02-19T07:00:17;24.20;;;7.67;;
20421;SDS011;10370;53.102;18.034;2023-02-19T07:05:42;25.77;;;7.87;;
20421;SDS011;10370;53.102;18.034;2023-02-19T07:11:05;26.30;;;8.27;;
20421;SDS011;10370;53.102;18.034;2023-02-19T07:16:31;24.37;;;8.20;;
20421;SDS011;10370;53.102;18.034;2023-02-19T07:21:57;17.83;;;6.90;;
20421;SDS011;10370;53.102;18.034;2023-02-19T07:27:22;29.57;;;7.17;;
20421;SDS011;10370;53.102;18.034;2023-02-19T07:32:47;12.50;;;5.73;;
20421;SDS011;10370;53.102;18.034;2023-02-19T07:38:14;14.60;;;6.10;;
20421;SDS011;10370;53.102;18.034;2023-02-19T07:43:41;15.93;;;6.40;;
20421;SDS011;10370;53.102;18.034;2023-02-19T07:49:06;18.70;;;6.33;;
20421;SDS011;10370;53.102;18.034;2023-02-19T07:54:33;19.33;;;6.00;;
20421;SDS011;10370;53.102;18.034;2023-02-19T07:59:59;14.73;;;6.50;;
20421;SDS011;10370;53.102;18.034;2023-02-19T08:05:28;13.93;;;6.30;;
20421;SDS011;10370;53.102;18.034;2023-02-19T08:10:51;18.57;;;6.43;;
20421;SDS011;10370;53.102;18.034;2023-02-19T08:16:33;20.33;;;6.37;;
20421;SDS011;10370;53.102;18.034;2023-02-19T08:22:02;17.97;;;6.53;;
20421;SDS011;10370;53.102;18.034;2023-02-19T08:27:25;23.20;;;6.37;;
20421;SDS011;10370;53.102;18.034;2023-02-19T08:32:53;20.50;;;7.17;;
20421;SDS011;10370;53.102;18.034;2023-02-19T08:38:21;19.93;;;6.13;;
20421;SDS011;10370;53.102;18.034;2023-02-19T08:43:46;14.67;;;6.77;;
20421;SDS011;10370;53.102;18.034;2023-02-19T08:49:09;18.20;;;7.60;;
20421;SDS011;10370;53.102;18.034;2023-02-19T08:54:34;15.43;;;6.13;;
20421;SDS011;10370;53.102;18.034;2023-02-19T09:00:00;16.40;;;4.73;;
20421;SDS011;10370;53.102;18.034;2023-02-19T09:05:26;14.77;;;4.90;;
20421;SDS011;10370;53.102;18.034;2023-02-19T09:10:59;17.80;;;4.77;;
20421;SDS011;10370;53.102;18.034;2023-02-19T09:16:25;12.40;;;4.27;;
20421;SDS011;10370;53.102;18.034;2023-02-19T09:21:53;14.70;;;4.60;;
20421;SDS011;10370;53.102;18.034;2023-02-19T09:27:18;17.37;;;4.90;;
20421;SDS011;10370;53.102;18.034;2023-02-19T09:32:43;13.97;;;4.23;;
20421;SDS011;10370;53.102;18.034;2023-02-19T09:38:08;14.80;;;4.03;;
20421;SDS011;10370;53.102;18.034;2023-02-19T09:43:33;14.30;;;4.33;;
20421;SDS011;10370;53.102;18.034;2023-02-19T09:49:10;13.50;;;3.90;;
20421;SDS011;10370;53.102;18.034;2023-02-19T09:54:39;14.97;;;3.90;;
20421;SDS011;10370;53.102;18.034;2023-02-19T10:05:42;10.50;;;3.70;;
20421;SDS011;10370;53.102;18.034;2023-02-19T10:11:07;9.67;;;2.97;;
20421;SDS011;10370;53.102;18.034;2023-02-19T10:16:32;9.13;;;2.93;;
20421;SDS011;10370;53.102;18.034;2023-02-19T10:22:01;10.67;;;2.80;;
20421;SDS011;10370;53.102;18.034;2023-02-19T10:27:30;7.40;;;2.30;;
20421;SDS011;10370;53.102;18.034;2023-02-19T10:38:35;8.73;;;2.83;;
20421;SDS011;10370;53.102;18.034;2023-02-19T10:49:38;6.90;;;2.30;;
20421;SDS011;10370;53.102;18.034;2023-02-19T11:01:12;9.30;;;2.20;;
20421;SDS011;10370;53.102;18.034;2023-02-19T11:06:37;6.80;;;1.93;;
20421;SDS011;10370;53.102;18.034;2023-02-19T11:12:02;7.65;;;1.70;;
20421;SDS011;10370;53.102;18.034;2023-02-19T11:17:28;11.37;;;2.10;;
20421;SDS011;10370;53.102;18.034;2023-02-19T11:22:59;9.00;;;2.37;;
20421;SDS011;10370;53.102;18.034;2023-02-19T11:28:39;5.53;;;2.30;;
20421;SDS011;10370;53.102;18.034;2023-02-19T11:39:43;6.43;;;1.90;;
20421;SDS011;10370;53.102;18.034;2023-02-19T11:51:14;5.47;;;2.20;;
20421;SDS011;10370;53.102;18.034;2023-02-19T11:56:41;8.23;;;2.30;;
20421;SDS011;10370;53.102;18.034;2023-02-19T12:02:19;5.80;;;2.00;;
20421;SDS011;10370;53.102;18.034;2023-02-19T12:53:44;4.80;;;1.70;;
20421;SDS011;10370;53.102;18.034;2023-02-19T12:59:14;7.80;;;1.53;;
20421;SDS011;10370;53.102;18.034;2023-02-19T13:04:54;4.93;;;1.83;;
20421;SDS011;10370;53.102;18.034;2023-02-19T13:16:16;5.77;;;1.40;;
20421;SDS011;10370;53.102;18.034;2023-02-19T13:21:42;6.77;;;1.90;;
20421;SDS011;10370;53.102;18.034;2023-02-19T13:33:25;8.05;;;2.03;;
20421;SDS011;10370;53.102;18.034;2023-02-19T13:39:06;5.13;;;1.37;;
20421;SDS011;10370;53.102;18.034;2023-02-19T13:44:39;4.07;;;1.20;;
20421;SDS011;10370;53.102;18.034;2023-02-19T13:50:26;2.80;;;1.23;;
20421;SDS011;10370;53.102;18.034;2023-02-19T13:55:54;3.03;;;1.07;;
20421;SDS011;10370;53.102;18.034;2023-02-19T14:02:04;2.30;;;1.23;;
20421;SDS011;10370;53.102;18.034;2023-02-19T14:12:32;2.00;;;1.23;;
20421;SDS011;10370;53.102;18.034;2023-02-19T14:17:58;2.37;;;0.90;;
20421;SDS011;10370;53.102;18.034;2023-02-19T14:23:23;4.83;;;1.30;;
20421;SDS011;10370;53.102;18.034;2023-02-19T14:28:50;4.70;;;1.37;;
20421;SDS011;10370;53.102;18.034;2023-02-19T14:34:16;2.27;;;1.23;;
20421;SDS011;10370;53.102;18.034;2023-02-19T14:39:48;3.33;;;1.30;;
20421;SDS011;10370;53.102;18.034;2023-02-19T14:45:15;6.13;;;1.50;;
20421;SDS011;10370;53.102;18.034;2023-02-19T14:50:41;5.27;;;1.67;;
20421;SDS011;10370;53.102;18.034;2023-02-19T14:56:19;2.43;;;1.43;;
20421;SDS011;10370;53.102;18.034;2023-02-19T15:01:57;10.63;;;1.70;;
20421;SDS011;10370;53.102;18.034;2023-02-19T15:07:29;4.07;;;1.30;;
20421;SDS011;10370;53.102;18.034;2023-02-19T15:13:04;2.90;;;1.10;;
20421;SDS011;10370;53.102;18.034;2023-02-19T15:18:29;3.07;;;1.13;;
20421;SDS011;10370;53.102;18.034;2023-02-19T15:23:59;6.60;;;1.50;;
20421;SDS011;10370;53.102;18.034;2023-02-19T15:29:26;3.30;;;1.30;;
20421;SDS011;10370;53.102;18.034;2023-02-19T15:34:54;3.17;;;1.20;;
20421;SDS011;10370;53.102;18.034;2023-02-19T15:40:23;4.67;;;1.50;;
20421;SDS011;10370;53.102;18.034;2023-02-19T15:45:53;4.10;;;1.67;;
20421;SDS011;10370;53.102;18.034;2023-02-19T15:51:22;3.57;;;1.77;;
20421;SDS011;10370;53.102;18.034;2023-02-19T15:56:51;5.80;;;1.80;;
20421;SDS011;10370;53.102;18.034;2023-02-19T16:02:18;4.53;;;1.77;;
20421;SDS011;10370;53.102;18.034;2023-02-19T16:07:46;4.20;;;1.57;;
20421;SDS011;10370;53.102;18.034;2023-02-19T16:13:31;3.23;;;1.60;;
20421;SDS011;10370;53.102;18.034;2023-02-19T16:18:59;5.20;;;1.60;;
20421;SDS011;10370;53.102;18.034;2023-02-19T16:29:58;5.20;;;1.70;;
20421;SDS011;10370;53.102;18.034;2023-02-19T16:35:47;7.90;;;1.90;;
20421;SDS011;10370;53.102;18.034;2023-02-19T16:41:13;7.53;;;1.60;;
20421;SDS011;10370;53.102;18.034;2023-02-19T16:46:42;3.57;;;1.70;;
20421;SDS011;10370;53.102;18.034;2023-02-19T16:52:05;3.67;;;1.50;;
20421;SDS011;10370;53.102;18.034;2023-02-19T16:57:34;5.53;;;2.20;;
20421;SDS011;10370;53.102;18.034;2023-02-19T17:03:06;7.53;;;2.07;;
20421;SDS011;10370;53.102;18.034;2023-02-19T17:08:39;4.87;;;2.10;;
20421;SDS011;10370;53.102;18.034;2023-02-19T17:14:04;4.13;;;1.90;;
20421;SDS011;10370;53.102;18.034;2023-02-19T17:19:30;7.93;;;2.30;;
20421;SDS011;10370;53.102;18.034;2023-02-19T17:24:52;5.53;;;2.40;;
20421;SDS011;10370;53.102;18.034;2023-02-19T17:30:18;11.97;;;6.00;;
20421;SDS011;10370;53.102;18.034;2023-02-19T17:35:56;18.33;;;9.67;;
20421;SDS011;10370;53.102;18.034;2023-02-19T17:41:22;10.57;;;5.63;;
20421;SDS011;10370;53.102;18.034;2023-02-19T17:46:45;13.77;;;4.50;;
20421;SDS011;10370;53.102;18.034;2023-02-19T17:52:18;11.53;;;4.47;;
20421;SDS011;10370;53.102;18.034;2023-02-19T17:57:41;12.70;;;4.10;;
20421;SDS011;10370;53.102;18.034;2023-02-19T18:03:10;11.27;;;4.20;;
20421;SDS011;10370;53.102;18.034;2023-02-19T18:08:51;10.43;;;4.57;;
20421;SDS011;10370;53.102;18.034;2023-02-19T18:14:15;16.33;;;6.30;;
20421;SDS011;10370;53.102;18.034;2023-02-19T18:19:40;14.00;;;5.70;;
20421;SDS011;10370;53.102;18.034;2023-02-19T18:25:05;16.63;;;7.03;;
20421;SDS011;10370;53.102;18.034;2023-02-19T18:30:31;14.90;;;6.70;;
20421;SDS011;10370;53.102;18.034;2023-02-19T18:35:56;14.90;;;6.30;;
20421;SDS011;10370;53.102;18.034;2023-02-19T18:41:22;16.93;;;7.53;;
20421;SDS011;10370;53.102;18.034;2023-02-19T18:46:47;14.77;;;6.80;;
20421;SDS011;10370;53.102;18.034;2023-02-19T18:52:08;14.60;;;7.20;;
20421;SDS011;10370;53.102;18.034;2023-02-19T18:57:36;10.80;;;4.90;;
20421;SDS011;10370;53.102;18.034;2023-02-19T19:03:01;12.00;;;3.40;;
20421;SDS011;10370;53.102;18.034;2023-02-19T19:08:28;4.97;;;2.90;;
20421;SDS011;10370;53.102;18.034;2023-02-19T19:13:51;7.47;;;3.40;;
20421;SDS011;10370;53.102;18.034;2023-02-19T19:19:16;12.30;;;3.70;;
20421;SDS011;10370;53.102;18.034;2023-02-19T19:24:42;7.93;;;3.70;;
20421;SDS011;10370;53.102;18.034;2023-02-19T19:30:06;14.90;;;4.30;;
20421;SDS011;10370;53.102;18.034;2023-02-19T19:35:48;30.03;;;10.17;;
20421;SDS011;10370;53.102;18.034;2023-02-19T19:41:12;28.40;;;10.83;;
20421;SDS011;10370;53.102;18.034;2023-02-19T19:46:41;14.17;;;3.67;;
20421;SDS011;10370;53.102;18.034;2023-02-19T19:52:04;9.33;;;3.13;;
20421;SDS011;10370;53.102;18.034;2023-02-19T19:57:28;7.27;;;2.90;;
20421;SDS011;10370;53.102;18.034;2023-02-19T20:02:48;9.33;;;3.97;;
20421;SDS011;10370;53.102;18.034;2023-02-19T20:08:11;9.20;;;3.70;;
20421;SDS011;10370;53.102;18.034;2023-02-19T20:13:35;12.40;;;4.80;;
20421;SDS011;10370;53.102;18.034;2023-02-19T20:18:59;12.93;;;3.73;;
20421;SDS011;10370;53.102;18.034;2023-02-19T20:24:22;8.83;;;3.23;;
20421;SDS011;10370;53.102;18.034;2023-02-19T20:29:49;10.30;;;4.70;;
20421;SDS011;10370;53.102;18.034;2023-02-19T20:35:17;7.47;;;3.10;;
20421;SDS011;10370;53.102;18.034;2023-02-19T20:40:45;17.43;;;5.43;;
20421;SDS011;10370;53.102;18.034;2023-02-19T20:46:09;16.83;;;4.40;;
20421;SDS011;10370;53.102;18.034;2023-02-19T20:51:30;13.80;;;4.00;;
20421;SDS011;10370;53.102;18.034;2023-02-19T20:56:52;13.30;;;3.90;;
20421;SDS011;10370;53.102;18.034;2023-02-19T21:02:16;15.73;;;3.97;;
20421;SDS011;10370;53.102;18.034;2023-02-19T21:07:43;18.47;;;6.07;;
20421;SDS011;10370;53.102;18.034;2023-02-19T21:13:07;13.17;;;4.13;;
20421;SDS011;10370;53.102;18.034;2023-02-19T21:18:28;15.50;;;4.80;;
20421;SDS011;10370;53.102;18.034;2023-02-19T21:23:57;10.80;;;4.07;;
20421;SDS011;10370;53.102;18.034;2023-02-19T21:29:19;11.50;;;3.67;;
20421;SDS011;10370;53.102;18.034;2023-02-19T21:34:42;11.27;;;3.97;;
20421;SDS011;10370;53.102;18.034;2023-02-19T21:40:03;8.23;;;3.30;;
20421;SDS011;10370;53.102;18.034;2023-02-19T21:45:25;8.07;;;3.00;;
20421;SDS011;10370;53.102;18.034;2023-02-19T21:50:46;8.73;;;3.30;;
20421;SDS011;10370;53.102;18.034;2023-02-19T21:56:09;5.83;;;2.60;;
20421;SDS011;10370;53.102;18.034;2023-02-19T22:01:42;6.63;;;2.37;;
20421;SDS011;10370;53.102;18.034;2023-02-19T22:07:05;8.93;;;2.80;;
20421;SDS011;10370;53.102;18.034;2023-02-19T22:12:30;7.13;;;3.10;;
20421;SDS011;10370;53.102;18.034;2023-02-19T22:17:57;19.60;;;6.83;;
20421;SDS011;10370;53.102;18.034;2023-02-19T22:23:22;19.27;;;7.67;;
20421;SDS011;10370;53.102;18.034;2023-02-19T22:28:47;7.93;;;3.50;;
20421;SDS011;10370;53.102;18.034;2023-02-19T22:34:13;10.77;;;3.90;;
20421;SDS011;10370;53.102;18.034;2023-02-19T22:39:41;8.00;;;4.00;;
20421;SDS011;10370;53.102;18.034;2023-02-19T22:45:11;11.80;;;4.63;;
20421;SDS011;10370;53.102;18.034;2023-02-19T22:50:36;9.80;;;3.57;;
20421;SDS011;10370;53.102;18.034;2023-02-19T22:56:04;7.07;;;3.37;;
20421;SDS011;10370;53.102;18.034;2023-02-19T23:01:37;7.67;;;3.27;;
20421;SDS011;10370;53.102;18.034;2023-02-19T23:07:04;10.17;;;3.03;;
20421;SDS011;10370;53.102;18.034;2023-02-19T23:12:28;11.60;;;4.13;;
20421;SDS011;10370;53.102;18.034;2023-02-19T23:17:54;19.50;;;7.53;;
20421;SDS011;10370;53.102;18.034;2023-02-19T23:23:19;15.83;;;5.77;;
20421;SDS011;10370;53.102;18.034;2023-02-19T23:28:44;14.83;;;5.97;;
20421;SDS011;10370;53.102;18.034;2023-02-19T23:34:09;6.47;;;2.80;;
20421;SDS011;10370;53.102;18.034;2023-02-19T23:39:34;7.23;;;2.77;;
20421;SDS011;10370;53.102;18.034;2023-02-19T23:45:02;9.77;;;2.23;;
20421;SDS011;10370;53.102;18.034;2023-02-19T23:50:27;7.27;;;2.37;;
20421;SDS011;10370;53.102;18.034;2023-02-19T23:55:54;6.17;;;2.37;;
